Aérodrome :
LOGIN :

S'inscrire | Disclaimer

   EN    FR    IT 

 










Légende :    VFR   VFR Marginal   IFR   IFR Intensif   IFR Très Intensif
Visi : 
Plafond : 
>= 8 km
>= 3000ft
5 à 8 km
1000 à 3000 ft
1500m à 5 km
500 à 1000 ft
800 à 1500m
200 à 500 ft
< 800m
< 200 ft
Symboles :   Orages  Brouillard  Fortes neiges  Fortes précipitations  Vent > 20 kt
SIGMETs :   Divers  Orages  Givrage  Turbulence  Onde Orograph.  Cendres Volcan.







- Altitude de l'aérodrome : 19 ft
- Code IATA : LCY
- Voir les cartes d'approche


EGLC - London City

DERNIER METAR :
  • 231320Z AUTO 30011KT 280V350 9999 NCD 12/06 Q1019

METARs EXPIRÉS :
  • 231250Z AUTO 30012KT 9999 FEW032 11/07 Q1019
  • 231220Z AUTO 30008KT 9999 -RA BKN047 10/07 Q1018
  • 231150Z AUTO 32008KT 250V010 9999 -RA NCD 10/07 Q1018
  • 231120Z AUTO 34008KT 270V020 9999 -RA FEW043 10/08 Q1017
  • 231050Z AUTO 34010KT 300V030 9999 -RA NCD 10/07 Q1017

TAF TAF EGLC
Valide du 23 à 12h jusqu'au 23 à 21h UTC


231054Z 2312/2321 33010KT 9999 SCT030
PROB40
TEMPO 2312/2314 33015G25KT 9000 RA BKN012
ATIS : +44 20 7646 0224
Pas de NOTAMs connus pour ce terrain.
1 SIGMET publié pour la FIR London (EGTT) :
 
Turbulence forte
EGTT SIGMET 03 VALID 231330/231630 EGRR
EGTT LONDON FIR SEV TURB FCST WI N5100 E00128 - N5040 E00128 - N5000 W00014 - N5031 W00005 - N5102 E00122 - N5130 E00200 - N5107 E00201 - N5100 E00128 SFC/FL060 MOV E 30KT WKN=



MET'MAP, la Météo Aéronautique d'un coup d'oeil ! - Copyright ORBIFLY Décembre 2007 - Disclaimer

ORBIFLY MET'MAP TEAM :

Programmation & Développement : Alexandra Zaïnal
Conception & Développement : Baudouin d'Aumeries
Co-Programmation & Développement : Marc-Olivier Méhu
Soutien technique & logistique : Manuel Goepfert

Contact : metmap@orbifly.com




SOURCES & CREDITS :

   NOAA